Time;durP1;ratioP1;P1;durP2;ratioP2;P2;SDS_P1;SDS_P2;PMS_P1;PMS_P2;Temp;Humidity;BMP_temperature;BMP_pressure;BME280_temperature;BME280_humidity;BME280_pressure;Samples;Min_cycle;Max_cycle;Signal;HPM_P1;HPM_P2
2022/10/02 00:02:35;;;;;;;8.05;3.33;;;13.00;99.90;;;;;;5002170;28;20049;-68
2022/10/02 00:05:14;;;;;;;5.57;2.33;;;13.00;99.90;;;;;;5011179;28;20033;-68
2022/10/02 00:07:44;;;;;;;4.95;2.55;;;13.00;99.90;;;;;;4993624;28;20080;-68
2022/10/02 00:10:19;;;;;;;7.47;2.47;;;13.00;99.90;;;;;;5012010;28;20049;-68
2022/10/02 00:12:48;;;;;;;6.40;2.72;;;13.10;99.90;;;;;;5012323;28;20029;-68
2022/10/02 00:15:27;;;;;;;6.97;2.60;;;13.10;99.90;;;;;;5011537;28;20045;-68
2022/10/02 00:17:56;;;;;;;10.70;2.58;;;13.10;99.90;;;;;;4994492;28;20120;-68
2022/10/02 00:20:29;;;;;;;6.03;2.70;;;13.20;99.90;;;;;;5011981;28;20456;-68
2022/10/02 00:23:07;;;;;;;5.68;2.67;;;13.20;99.90;;;;;;4994271;28;20062;-68
2022/10/02 00:25:55;;;;;;;9.57;3.35;;;13.20;99.90;;;;;;5003086;28;20528;-68
2022/10/02 00:28:34;;;;;;;9.15;2.70;;;13.30;99.90;;;;;;4996677;28;20037;-69
2022/10/02 00:31:15;;;;;;;7.20;3.38;;;13.30;99.90;;;;;;5010178;28;20038;-68
2022/10/02 00:33:59;;;;;;;3.92;2.33;;;13.30;99.90;;;;;;5000357;28;20095;-68
2022/10/02 00:36:46;;;;;;;7.60;2.80;;;13.30;99.90;;;;;;5004331;28;20034;-69
2022/10/02 00:39:36;;;;;;;6.68;2.30;;;13.30;99.90;;;;;;5001445;28;20026;-68
2022/10/02 00:42:24;;;;;;;5.93;2.35;;;13.30;99.90;;;;;;4992136;28;20037;-68
2022/10/02 00:45:24;;;;;;;8.35;2.72;;;13.30;99.90;;;;;;4995994;28;20076;-68
2022/10/02 00:48:27;;;;;;;7.72;2.45;;;13.30;99.90;;;;;;4996157;28;20025;-68
2022/10/02 00:51:11;;;;;;;7.93;3.10;;;13.30;99.90;;;;;;4996427;28;20077;-68
2022/10/02 00:54:13;;;;;;;6.30;2.90;;;13.30;99.90;;;;;;4991416;28;20424;-68
2022/10/02 00:57:09;;;;;;;8.10;2.22;;;13.30;99.90;;;;;;4996577;28;20042;-68
2022/10/02 01:00:00;;;;;;;6.65;2.20;;;13.30;99.90;;;;;;5009477;28;20033;-68
2022/10/02 01:02:35;;;;;;;9.95;2.72;;;13.30;99.90;;;;;;4998830;28;20052;-68
2022/10/02 01:05:06;;;;;;;8.15;2.40;;;13.30;99.90;;;;;;5010264;28;20119;-69
2022/10/02 01:07:35;;;;;;;6.35;2.50;;;13.30;99.90;;;;;;4998749;28;20037;-68
2022/10/02 01:10:02;;;;;;;9.98;3.85;;;13.30;99.90;;;;;;5011966;28;20057;-68
2022/10/02 01:12:27;;;;;;;5.25;2.70;;;13.30;99.90;;;;;;4999310;28;20113;-68
2022/10/02 01:14:53;;;;;;;5.03;2.47;;;13.30;99.90;;;;;;5010459;28;20121;-68
2022/10/02 01:17:30;;;;;;;5.53;2.00;;;13.30;99.90;;;;;;5000786;28;20026;-68
2022/10/02 01:19:58;;;;;;;8.27;2.42;;;13.30;99.90;;;;;;5026367;28;20033;-68
2022/10/02 01:22:35;;;;;;;8.10;2.25;;;13.30;99.90;;;;;;5012356;28;20116;-68
2022/10/02 01:25:04;;;;;;;8.68;2.95;;;13.30;99.90;;;;;;5011328;28;20022;-68
2022/10/02 01:27:31;;;;;;;5.05;2.58;;;13.30;99.90;;;;;;4974315;28;20042;-68
2022/10/02 01:30:01;;;;;;;4.15;2.55;;;13.30;99.90;;;;;;5008948;28;20050;-68
2022/10/02 01:32:31;;;;;;;7.95;2.80;;;13.30;99.90;;;;;;4999858;28;20041;-68
2022/10/02 01:34:57;;;;;;;3.90;2.00;;;13.30;99.90;;;;;;5008453;28;20026;-68
2022/10/02 01:37:27;;;;;;;6.85;2.67;;;13.30;99.90;;;;;;5006275;28;20556;-68
2022/10/02 01:39:55;;;;;;;5.50;2.22;;;13.20;99.90;;;;;;5011024;28;20069;-68
2022/10/02 01:42:20;;;;;;;5.90;2.47;;;13.20;99.90;;;;;;5004757;28;20062;-69
2022/10/02 01:44:47;;;;;;;7.35;2.63;;;13.20;99.90;;;;;;5009140;28;20068;-69
2022/10/02 01:47:20;;;;;;;7.18;2.35;;;13.20;99.90;;;;;;5006714;28;20026;-69
2022/10/02 01:50:13;;;;;;;6.97;2.50;;;13.20;99.90;;;;;;5009126;28;20424;-70
2022/10/02 01:53:12;;;;;;;6.78;2.40;;;13.20;99.90;;;;;;5012658;28;20034;-70
2022/10/02 01:55:52;;;;;;;7.00;2.03;;;13.20;99.90;;;;;;5011051;28;20128;-69
2022/10/02 01:58:31;;;;;;;7.70;2.58;;;13.10;99.90;;;;;;5000581;28;20121;-68
2022/10/02 02:01:10;;;;;;;9.13;2.55;;;13.10;99.90;;;;;;4989191;28;20370;-69
2022/10/02 02:03:51;;;;;;;4.43;2.03;;;13.10;99.90;;;;;;5009377;28;20036;-69
2022/10/02 02:06:31;;;;;;;6.82;2.63;;;13.10;99.90;;;;;;5013192;28;20117;-69
2022/10/02 02:09:20;;;;;;;7.43;2.60;;;13.10;99.90;;;;;;4997132;28;20463;-69
2022/10/02 02:12:02;;;;;;;6.50;2.88;;;13.10;99.90;;;;;;5014154;28;20069;-69
2022/10/02 02:14:36;;;;;;;10.55;3.25;;;13.00;99.90;;;;;;5008699;28;20501;-69
2022/10/02 02:17:12;;;;;;;6.85;2.40;;;13.00;99.90;;;;;;5012734;28;20120;-68
2022/10/02 02:19:44;;;;;;;8.25;3.85;;;13.00;99.90;;;;;;4995357;28;20038;-68
2022/10/02 02:22:25;;;;;;;6.40;2.63;;;13.00;99.90;;;;;;5012087;28;20032;-68
2022/10/02 02:25:09;;;;;;;8.35;2.50;;;13.00;99.90;;;;;;4995366;28;20033;-70
2022/10/02 02:27:40;;;;;;;7.82;2.65;;;13.00;99.90;;;;;;5010401;28;20088;-69
2022/10/02 02:30:10;;;;;;;9.73;3.72;;;13.00;99.90;;;;;;4996177;28;20084;-69
2022/10/02 02:32:51;;;;;;;8.57;2.45;;;13.00;99.90;;;;;;5010270;28;20058;-69
2022/10/02 02:35:25;;;;;;;7.13;2.50;;;13.00;99.90;;;;;;4996368;28;20033;-68
2022/10/02 02:37:58;;;;;;;6.45;2.42;;;13.00;99.90;;;;;;4999959;28;20118;-69
2022/10/02 02:40:28;;;;;;;10.35;2.63;;;13.00;99.90;;;;;;5002698;28;20049;-69
2022/10/02 02:43:07;;;;;;;9.40;3.58;;;13.00;99.90;;;;;;5003549;28;20105;-68
2022/10/02 02:45:39;;;;;;;5.82;2.33;;;13.00;99.90;;;;;;5000869;28;20030;-67
2022/10/02 02:48:12;;;;;;;4.80;2.38;;;13.00;99.90;;;;;;5005075;28;20040;-68
2022/10/02 02:50:58;;;;;;;5.57;2.17;;;13.00;99.90;;;;;;4983105;28;20049;-68
2022/10/02 02:53:32;;;;;;;9.52;2.83;;;12.90;99.90;;;;;;5003403;28;20031;-68
2022/10/02 02:56:04;;;;;;;8.75;3.33;;;12.90;99.90;;;;;;5003342;28;20053;-68
2022/10/02 02:58:38;;;;;;;5.07;2.17;;;12.90;99.90;;;;;;5008318;28;20038;-68
2022/10/02 03:01:04;;;;;;;7.05;2.60;;;12.90;99.90;;;;;;5013143;28;20038;-68
2022/10/02 03:03:30;;;;;;;8.85;2.70;;;12.90;99.90;;;;;;5003603;28;20030;-68
2022/10/02 03:06:06;;;;;;;9.13;2.50;;;12.80;99.90;;;;;;5005098;28;20041;-69
2022/10/02 03:08:38;;;;;;;5.18;2.25;;;12.80;99.90;;;;;;5003437;28;20042;-70
2022/10/02 03:11:16;;;;;;;11.35;2.97;;;12.80;99.90;;;;;;5006581;28;20073;-69
2022/10/02 03:14:00;;;;;;;8.77;2.65;;;12.80;99.90;;;;;;5009930;28;20030;-69
2022/10/02 03:16:51;;;;;;;8.63;2.40;;;12.80;99.90;;;;;;5008749;28;20068;-68
2022/10/02 03:19:53;;;;;;;9.82;3.78;;;12.70;99.90;;;;;;5012375;28;20033;-69
2022/10/02 03:22:25;;;;;;;6.22;2.20;;;12.70;99.90;;;;;;4988498;28;20042;-69
2022/10/02 03:25:18;;;;;;;7.47;2.50;;;12.70;99.90;;;;;;4997583;28;20060;-69
2022/10/02 03:27:52;;;;;;;7.93;2.67;;;12.70;99.90;;;;;;5012946;28;20113;-69
2022/10/02 03:30:23;;;;;;;5.30;2.63;;;12.70;99.90;;;;;;5013087;28;20045;-69
2022/10/02 03:32:52;;;;;;;7.07;2.42;;;12.60;99.90;;;;;;5009421;28;20034;-69
2022/10/02 03:35:20;;;;;;;6.55;2.75;;;12.60;99.90;;;;;;4998516;28;20042;-69
2022/10/02 03:37:55;;;;;;;7.18;2.25;;;12.60;99.90;;;;;;4991184;28;20105;-69
2022/10/02 03:40:23;;;;;;;5.38;2.45;;;12.60;99.90;;;;;;4998062;28;20034;-69
2022/10/02 03:42:50;;;;;;;6.05;2.45;;;12.60;99.90;;;;;;5009956;28;20109;-69
2022/10/02 03:45:17;;;;;;;6.93;2.00;;;12.60;99.90;;;;;;4997272;28;20452;-70
2022/10/02 03:47:43;;;;;;;7.53;2.70;;;12.60;99.90;;;;;;5011082;28;20030;-69
2022/10/02 03:50:12;;;;;;;5.32;2.28;;;12.60;99.90;;;;;;4995542;28;20038;-69
2022/10/02 03:52:38;;;;;;;7.40;2.28;;;12.60;99.90;;;;;;5012240;28;20112;-69
2022/10/02 03:55:16;;;;;;;11.00;3.22;;;12.60;99.90;;;;;;5012131;28;20156;-69
2022/10/02 03:57:43;;;;;;;6.30;2.28;;;12.60;99.90;;;;;;5012054;28;20445;-69
2022/10/02 04:00:24;;;;;;;5.43;2.60;;;12.60;99.90;;;;;;4993133;28;20025;-69
2022/10/02 04:02:57;;;;;;;6.45;2.47;;;12.60;99.90;;;;;;4994354;28;20152;-69
2022/10/02 04:05:43;;;;;;;6.78;2.67;;;12.50;99.90;;;;;;5010220;28;20128;-69
2022/10/02 04:08:16;;;;;;;7.03;2.17;;;12.50;99.90;;;;;;4995818;28;20034;-70
2022/10/02 04:10:49;;;;;;;6.75;3.63;;;12.50;99.90;;;;;;5011491;28;20034;-69
2022/10/02 04:13:47;;;;;;;10.13;2.88;;;12.50;99.90;;;;;;5009874;28;20038;-69
2022/10/02 04:16:38;;;;;;;7.25;2.33;;;12.50;99.90;;;;;;5011656;28;20038;-69
2022/10/02 04:19:21;;;;;;;5.85;2.15;;;12.50;99.90;;;;;;4986720;28;20030;-69
2022/10/02 04:22:26;;;;;;;8.95;3.72;;;12.50;99.90;;;;;;5012151;28;20065;-69
2022/10/02 04:25:09;;;;;;;7.13;2.28;;;12.50;99.90;;;;;;5018410;28;20030;-69
2022/10/02 04:27:47;;;;;;;6.68;2.63;;;12.50;99.90;;;;;;5004211;28;20386;-70
2022/10/02 04:30:18;;;;;;;9.45;2.72;;;12.50;99.90;;;;;;4990976;28;20080;-69
2022/10/02 04:32:43;;;;;;;6.00;2.28;;;12.50;99.90;;;;;;5011377;28;20457;-69
2022/10/02 04:35:35;;;;;;;6.15;2.33;;;12.50;99.90;;;;;;5007532;28;20037;-69
2022/10/02 04:38:25;;;;;;;4.88;2.22;;;12.50;99.90;;;;;;5010853;28;20368;-69
2022/10/02 04:41:24;;;;;;;7.05;2.60;;;12.50;99.90;;;;;;5001557;28;20108;-69
2022/10/02 04:44:29;;;;;;;7.90;2.90;;;12.60;99.90;;;;;;5007309;28;20488;-69
2022/10/02 04:47:01;;;;;;;6.22;1.90;;;12.60;99.90;;;;;;5011196;28;20104;-69
2022/10/02 04:49:45;;;;;;;10.30;2.72;;;12.60;99.90;;;;;;5006778;28;20514;-69
2022/10/02 04:52:13;;;;;;;7.18;2.50;;;12.60;99.90;;;;;;5006329;28;20730;-69
2022/10/02 04:54:50;;;;;;;5.82;2.05;;;12.70;99.90;;;;;;4990726;28;20454;-69
2022/10/02 04:57:34;;;;;;;6.47;2.38;;;12.70;99.90;;;;;;4987553;28;20572;-69
2022/10/02 05:00:14;;;;;;;6.72;2.53;;;12.70;99.90;;;;;;4985810;28;20658;-69
2022/10/02 05:03:14;;;;;;;5.75;2.13;;;12.70;99.90;;;;;;4991971;28;20560;-69
2022/10/02 05:05:52;;;;;;;5.07;2.08;;;12.80;99.90;;;;;;4988651;28;20564;-69
2022/10/02 05:08:56;;;;;;;5.22;2.47;;;12.80;99.90;;;;;;4986531;28;20050;-69
2022/10/02 05:11:33;;;;;;;6.95;2.75;;;12.80;99.90;;;;;;4988300;28;20516;-69
2022/10/02 05:14:25;;;;;;;9.73;2.28;;;12.90;99.90;;;;;;4988331;28;20041;-69
2022/10/02 05:17:11;;;;;;;4.25;1.60;;;12.90;99.90;;;;;;4992606;28;20462;-69
2022/10/02 05:19:50;;;;;;;8.18;2.80;;;13.00;99.90;;;;;;4993152;28;20041;-69
2022/10/02 05:22:39;;;;;;;5.20;2.25;;;13.00;99.90;;;;;;4981655;28;20092;-69
2022/10/02 05:25:33;;;;;;;5.95;2.15;;;13.00;99.90;;;;;;4957062;28;20027;-69
2022/10/02 05:28:10;;;;;;;6.07;2.00;;;13.10;99.90;;;;;;4996009;28;20033;-71
2022/10/02 05:31:01;;;;;;;8.98;2.50;;;13.10;99.90;;;;;;4979254;28;20494;-70
2022/10/02 05:33:43;;;;;;;9.98;3.28;;;13.10;99.90;;;;;;4986151;28;20347;-71
2022/10/02 05:36:34;;;;;;;6.10;2.85;;;13.10;99.90;;;;;;4987687;28;20034;-71
2022/10/02 05:39:12;;;;;;;6.95;2.10;;;13.10;99.90;;;;;;4988618;28;20022;-71
2022/10/02 05:41:40;;;;;;;4.72;2.72;;;13.10;99.90;;;;;;4993025;28;20098;-70
2022/10/02 05:44:27;;;;;;;8.85;2.30;;;13.10;99.90;;;;;;4987632;28;20022;-70
2022/10/02 05:47:28;;;;;;;6.20;2.17;;;13.20;99.90;;;;;;4978650;28;20112;-70
2022/10/02 05:50:11;;;;;;;5.18;2.38;;;13.10;99.90;;;;;;4948796;28;20042;-71
2022/10/02 05:53:04;;;;;;;9.50;2.25;;;13.10;99.90;;;;;;4994425;28;20022;-70
2022/10/02 05:55:57;;;;;;;4.13;1.90;;;13.10;99.90;;;;;;4995922;28;20066;-70
2022/10/02 05:58:34;;;;;;;4.50;1.90;;;13.20;99.90;;;;;;5013134;28;20119;-70
2022/10/02 06:01:10;;;;;;;4.70;2.45;;;13.20;99.90;;;;;;4995698;28;20626;-70
2022/10/02 06:03:52;;;;;;;6.47;2.60;;;13.20;99.90;;;;;;5003900;28;20753;-71
2022/10/02 06:06:29;;;;;;;6.32;2.58;;;13.30;99.90;;;;;;5002295;28;20061;-71
2022/10/02 06:09:03;;;;;;;6.05;2.25;;;13.40;99.90;;;;;;5009867;28;20125;-71
2022/10/02 06:11:47;;;;;;;7.72;2.42;;;13.40;99.90;;;;;;4995416;28;20113;-69
2022/10/02 06:14:30;;;;;;;5.47;2.45;;;13.50;99.90;;;;;;5011025;28;20032;-70
2022/10/02 06:17:01;;;;;;;7.65;3.30;;;13.60;99.90;;;;;;5006751;28;20117;-70
2022/10/02 06:19:51;;;;;;;8.73;2.60;;;13.60;99.90;;;;;;5008105;28;20034;-70
2022/10/02 06:22:29;;;;;;;6.45;2.55;;;13.70;99.90;;;;;;5010356;28;20037;-70
2022/10/02 06:25:03;;;;;;;7.18;2.33;;;13.70;99.90;;;;;;5002127;28;20026;-70
2022/10/02 06:27:49;;;;;;;6.97;2.73;;;13.70;99.90;;;;;;4996254;28;20042;-71
2022/10/02 06:30:16;;;;;;;8.27;3.03;;;13.80;99.90;;;;;;4995676;28;20304;-71
2022/10/02 06:33:09;;;;;;;7.78;2.10;;;13.80;99.90;;;;;;4988116;28;20117;-69
2022/10/02 06:35:52;;;;;;;7.10;2.78;;;13.80;99.90;;;;;;4990966;28;20038;-70
2022/10/02 06:38:30;;;;;;;4.65;2.17;;;13.80;99.90;;;;;;5013230;28;20503;-70
2022/10/02 06:41:01;;;;;;;6.53;2.10;;;13.90;99.90;;;;;;4998032;28;20027;-71
2022/10/02 06:43:29;;;;;;;6.10;2.30;;;14.00;99.90;;;;;;5021630;28;20042;-71
2022/10/02 06:46:29;;;;;;;4.43;2.17;;;14.00;99.90;;;;;;4997773;28;20034;-70
2022/10/02 06:49:16;;;;;;;6.78;3.03;;;14.00;99.90;;;;;;5010033;28;20113;-71
2022/10/02 06:51:53;;;;;;;10.02;3.25;;;14.00;99.90;;;;;;5001120;28;20029;-71
2022/10/02 06:54:49;;;;;;;5.47;2.45;;;14.10;99.90;;;;;;5003343;28;20470;-71
2022/10/02 06:57:42;;;;;;;6.32;2.03;;;14.10;99.90;;;;;;4985001;28;20041;-71
2022/10/02 07:00:15;;;;;;;5.82;2.65;;;14.10;99.90;;;;;;5007347;28;20025;-70
2022/10/02 07:02:55;;;;;;;6.82;2.55;;;14.10;99.90;;;;;;5012672;28;20033;-71
2022/10/02 07:05:42;;;;;;;8.98;2.75;;;14.10;99.90;;;;;;5012593;28;20112;-70
2022/10/02 07:08:29;;;;;;;5.63;2.50;;;14.10;99.90;;;;;;4992522;28;20026;-70
2022/10/02 07:11:31;;;;;;;7.15;2.75;;;14.10;99.90;;;;;;4992383;28;20030;-70
2022/10/02 07:14:29;;;;;;;6.82;2.80;;;14.10;99.90;;;;;;5006198;28;20157;-73
2022/10/02 07:17:21;;;;;;;5.68;3.13;;;14.00;99.90;;;;;;4998907;28;20058;-74
2022/10/02 07:20:24;;;;;;;5.63;3.00;;;14.00;99.90;;;;;;4995550;28;20053;-69
2022/10/02 07:23:25;;;;;;;5.55;2.97;;;14.00;99.90;;;;;;4995240;28;20350;-74
2022/10/02 07:26:01;;;;;;;5.93;2.95;;;14.00;99.90;;;;;;5011578;28;20033;-72
2022/10/02 07:28:38;;;;;;;7.47;2.92;;;14.00;99.90;;;;;;5008155;28;20045;-71
2022/10/02 07:31:30;;;;;;;8.40;2.75;;;14.00;99.90;;;;;;5012728;28;20042;-72
2022/10/02 07:34:24;;;;;;;6.32;3.35;;;14.00;99.90;;;;;;5010943;28;20576;-75
2022/10/02 07:36:55;;;;;;;6.93;3.03;;;14.00;99.90;;;;;;5012721;28;20038;-72
2022/10/02 07:39:30;;;;;;;5.18;3.30;;;14.00;99.90;;;;;;5007776;28;20482;-72
2022/10/02 07:42:13;;;;;;;8.10;3.60;;;14.10;99.90;;;;;;5010163;28;20038;-72
2022/10/02 07:45:14;;;;;;;6.80;2.88;;;14.10;99.90;;;;;;4994567;28;20040;-72
2022/10/02 07:48:34;;;;;;;7.35;3.72;;;14.10;99.90;;;;;;5007450;28;20027;-73
2022/10/02 07:54:28;;;;;;;6.78;3.45;;;14.20;99.90;;;;;;5003799;28;20030;-72
2022/10/02 07:57:00;;;;;;;6.75;4.03;;;14.30;99.90;;;;;;5009554;28;20042;-71
2022/10/02 07:59:30;;;;;;;8.63;3.92;;;14.20;99.90;;;;;;5006144;28;20026;-72
2022/10/02 08:01:57;;;;;;;9.40;3.75;;;14.30;99.90;;;;;;5012344;28;20022;-72
2022/10/02 08:04:33;;;;;;;10.68;3.95;;;14.40;99.90;;;;;;5006656;28;20496;-72
2022/10/02 08:07:02;;;;;;;6.93;3.88;;;14.40;99.90;;;;;;5011063;28;20030;-72
2022/10/02 08:09:35;;;;;;;10.20;4.60;;;14.50;99.90;;;;;;5006836;28;20046;-72
2022/10/02 08:12:27;;;;;;;12.25;4.65;;;14.60;99.90;;;;;;5011273;28;20044;-72
2022/10/02 08:14:55;;;;;;;12.07;5.18;;;14.80;99.90;;;;;;5012131;28;20030;-70
2022/10/02 08:17:44;;;;;;;10.07;4.30;;;14.90;99.90;;;;;;4997696;28;20053;-71
2022/10/02 08:20:32;;;;;;;10.30;3.85;;;15.00;99.90;;;;;;5005681;28;20034;-71
2022/10/02 08:23:24;;;;;;;6.68;4.00;;;15.10;99.90;;;;;;4994531;28;20113;-72
2022/10/02 08:26:14;;;;;;;10.10;5.05;;;15.20;99.90;;;;;;5008511;28;20037;-72
2022/10/02 08:28:56;;;;;;;11.25;4.45;;;15.30;99.90;;;;;;5011026;28;20037;-72
2022/10/02 08:31:23;;;;;;;11.18;4.45;;;15.40;99.90;;;;;;5006127;28;20044;-71
2022/10/02 08:33:49;;;;;;;9.90;4.40;;;15.50;99.90;;;;;;5010680;28;20477;-71
2022/10/02 08:36:39;;;;;;;7.78;3.83;;;15.70;99.90;;;;;;5004843;28;20038;-70
2022/10/02 08:39:40;;;;;;;9.07;4.28;;;15.70;99.90;;;;;;4981735;28;20436;-70
2022/10/02 08:42:28;;;;;;;14.52;4.88;;;15.80;99.90;;;;;;4947587;28;20053;-71
2022/10/02 08:45:09;;;;;;;9.35;4.43;;;15.90;99.90;;;;;;5002012;28;20089;-71
2022/10/02 08:48:11;;;;;;;8.55;4.00;;;16.00;99.90;;;;;;4992612;28;20030;-70
2022/10/02 08:50:53;;;;;;;9.80;3.70;;;16.00;99.90;;;;;;4999845;28;20065;-70
2022/10/02 08:53:31;;;;;;;11.07;4.20;;;16.10;99.90;;;;;;5008038;28;20037;-70
2022/10/02 08:56:36;;;;;;;13.10;4.95;;;16.20;99.90;;;;;;5000325;28;20408;-70
2022/10/02 08:59:25;;;;;;;9.73;4.30;;;16.20;99.90;;;;;;4948757;28;20041;-70
2022/10/02 09:02:42;;;;;;;10.73;4.07;;;16.40;99.90;;;;;;4981152;28;20025;-72
2022/10/02 09:05:36;;;;;;;9.88;4.05;;;16.50;99.90;;;;;;5003032;28;20054;-73
2022/10/02 09:08:32;;;;;;;10.07;4.57;;;16.60;99.90;;;;;;4993588;28;20030;-70
2022/10/02 09:11:34;;;;;;;8.85;3.95;;;16.60;99.90;;;;;;4992844;28;20054;-73
2022/10/02 09:14:16;;;;;;;10.73;4.90;;;16.70;99.90;;;;;;5011076;28;20079;-70
2022/10/02 09:17:13;;;;;;;10.52;4.85;;;16.90;99.90;;;;;;4997176;28;20065;-73
2022/10/02 09:20:00;;;;;;;9.38;4.13;;;16.90;99.90;;;;;;5009992;28;20026;-71
2022/10/02 09:23:03;;;;;;;11.00;4.10;;;17.00;99.90;;;;;;5011852;28;20026;-72
2022/10/02 09:25:36;;;;;;;9.65;4.75;;;17.10;99.80;;;;;;5006420;28;20033;-71
2022/10/02 09:28:26;;;;;;;12.35;4.22;;;17.10;99.60;;;;;;5011205;28;20038;-71
2022/10/02 09:31:24;;;;;;;7.82;3.83;;;17.20;99.80;;;;;;4996480;28;20121;-72
2022/10/02 09:34:08;;;;;;;8.45;4.50;;;17.30;99.70;;;;;;4998380;28;20049;-71
2022/10/02 09:37:11;;;;;;;7.67;4.37;;;17.30;99.30;;;;;;5000026;28;20041;-73
2022/10/02 09:39:56;;;;;;;14.27;4.65;;;17.30;99.30;;;;;;4992288;28;20057;-71
2022/10/02 09:43:08;;;;;;;7.20;4.07;;;17.30;99.10;;;;;;5003920;28;20037;-71
2022/10/02 09:45:59;;;;;;;11.05;3.80;;;17.30;99.20;;;;;;4992500;28;20034;-68
2022/10/02 09:48:44;;;;;;;10.68;4.22;;;17.30;98.90;;;;;;5010476;28;20034;-72
2022/10/02 09:52:07;;;;;;;10.63;5.00;;;17.40;99.00;;;;;;4997497;28;20069;-71
2022/10/02 09:54:50;;;;;;;9.05;3.83;;;17.40;98.80;;;;;;4922743;29;20070;-71
2022/10/02 09:57:43;;;;;;;8.98;3.83;;;17.40;98.80;;;;;;4932935;29;20086;-71
2022/10/02 10:00:14;;;;;;;9.43;4.00;;;17.50;98.80;;;;;;4973433;28;20085;-70
2022/10/02 10:03:17;;;;;;;9.63;3.88;;;17.50;98.70;;;;;;4974397;28;20034;-71
2022/10/02 10:06:27;;;;;;;7.60;3.50;;;17.60;98.50;;;;;;4993750;28;20048;-73
2022/10/02 10:09:13;;;;;;;9.88;3.60;;;17.60;98.60;;;;;;4975441;28;20066;-71
2022/10/02 10:12:13;;;;;;;9.13;3.90;;;17.70;98.20;;;;;;4999754;28;20038;-72
2022/10/02 10:15:18;;;;;;;8.23;3.75;;;17.70;98.20;;;;;;5001110;28;20478;-72
2022/10/02 10:18:09;;;;;;;8.50;3.08;;;17.70;98.10;;;;;;4994421;28;20046;-72
2022/10/02 10:21:26;;;;;;;7.53;3.58;;;17.60;97.90;;;;;;4975116;28;20118;-73
2022/10/02 10:24:23;;;;;;;10.57;3.42;;;17.60;97.90;;;;;;4990772;28;20485;-73
2022/10/02 10:27:07;;;;;;;8.77;3.40;;;17.50;98.00;;;;;;4994177;28;20434;-72
2022/10/02 10:29:52;;;;;;;8.90;3.65;;;17.50;98.20;;;;;;4995155;28;20046;-71
2022/10/02 10:32:41;;;;;;;;;;;17.50;98.30;;;;;;4987991;28;20511;-72
2022/10/02 10:35:19;;;;;;;7.43;3.28;;;17.50;98.30;;;;;;4981041;28;19918;-72
2022/10/02 10:41:28;;;;;;;5.95;3.10;;;17.30;98.30;;;;;;4996260;28;20038;-72
2022/10/02 10:44:16;;;;;;;8.40;3.20;;;17.30;98.40;;;;;;4994886;28;20678;-71
2022/10/02 10:47:17;;;;;;;6.20;3.05;;;17.30;98.50;;;;;;4995014;28;20038;-72
2022/10/02 10:50:20;;;;;;;6.65;3.05;;;17.40;98.50;;;;;;4998378;28;20121;-73
2022/10/02 10:53:16;;;;;;;6.80;2.85;;;17.50;98.40;;;;;;4993525;28;20473;-71
2022/10/02 10:56:11;;;;;;;7.07;2.95;;;17.50;98.40;;;;;;5010381;28;20050;-71
2022/10/02 10:59:03;;;;;;;7.47;3.40;;;17.40;98.20;;;;;;5017844;28;20064;-72
2022/10/02 11:02:00;;;;;;;7.00;2.75;;;17.40;98.30;;;;;;5016472;28;20030;-71
2022/10/02 11:04:32;;;;;;;8.25;3.45;;;17.40;98.50;;;;;;4997033;28;20034;-73
2022/10/02 11:07:20;;;;;;;10.30;4.32;;;17.40;98.60;;;;;;5000570;28;20033;-66
2022/10/02 11:10:15;;;;;;;7.05;3.58;;;17.40;98.80;;;;;;5005726;28;20046;-68
2022/10/02 11:13:03;;;;;;;7.65;3.63;;;17.50;98.90;;;;;;5006338;28;20082;-69
2022/10/02 11:15:38;;;;;;;6.28;3.83;;;17.60;99.00;;;;;;5026739;28;20100;-68
2022/10/02 11:18:34;;;;;;;9.57;3.30;;;17.70;99.00;;;;;;5013049;28;20029;-69
2022/10/02 11:21:12;;;;;;;;;;;17.80;98.90;;;;;;5010753;28;20079;-68
2022/10/02 11:23:57;;;;;;;5.75;3.10;;;17.90;99.10;;;;;;5013299;28;19905;-68
2022/10/02 11:26:40;;;;;;;9.48;3.63;;;18.00;98.80;;;;;;5011414;28;20117;-68
2022/10/02 11:29:33;;;;;;;6.90;3.30;;;18.00;98.60;;;;;;5013591;28;20038;-69
2022/10/02 11:31:58;;;;;;;7.00;3.75;;;17.90;98.40;;;;;;5009936;28;20069;-68
2022/10/02 11:34:42;;;;;;;10.75;4.00;;;17.70;98.20;;;;;;5012391;28;20061;-69
2022/10/02 11:37:46;;;;;;;6.80;3.53;;;17.60;98.30;;;;;;5010270;28;20034;-68
2022/10/02 11:40:43;;;;;;;8.15;3.15;;;17.40;98.60;;;;;;4958835;28;20122;-69
2022/10/02 11:43:42;;;;;;;5.72;2.95;;;17.20;98.70;;;;;;5011997;28;20029;-69
2022/10/02 11:46:21;;;;;;;8.00;3.72;;;17.10;98.70;;;;;;5000441;28;20030;-69
2022/10/02 11:49:19;;;;;;;5.32;3.58;;;17.00;98.70;;;;;;5004590;28;20034;-68
2022/10/02 11:51:54;;;;;;;10.02;3.42;;;17.00;98.90;;;;;;4994974;28;20037;-68
2022/10/02 11:54:19;;;;;;;;;;;16.90;99.10;;;;;;5004416;28;20117;-69
2022/10/02 11:57:00;;;;;;;6.53;3.28;;;16.90;99.10;;;;;;5002333;28;19967;-69
2022/10/02 11:59:43;;;;;;;6.70;3.72;;;16.90;99.30;;;;;;5009663;28;20067;-69
2022/10/02 12:02:21;;;;;;;7.20;3.75;;;16.90;99.50;;;;;;5010566;28;20065;-69
2022/10/02 12:05:14;;;;;;;11.68;3.92;;;16.90;99.60;;;;;;5008904;28;20034;-68
2022/10/02 12:07:40;;;;;;;7.85;4.35;;;17.00;99.60;;;;;;4998910;28;20037;-69
2022/10/02 12:10:38;;;;;;;7.13;4.03;;;17.00;99.70;;;;;;5007468;28;20068;-69
2022/10/02 12:13:30;;;;;;;7.68;4.22;;;17.10;99.90;;;;;;4973174;28;20034;-69
2022/10/02 12:16:25;;;;;;;5.80;3.58;;;17.10;99.70;;;;;;4997678;28;20037;-68
2022/10/02 12:19:30;;;;;;;8.05;3.97;;;17.10;99.60;;;;;;4999028;28;20033;-68
2022/10/02 12:28:29;;;;;;;9.35;4.18;;;17.20;98.70;;;;;;5005231;28;20088;-69
2022/10/02 12:31:19;;;;;;;7.50;3.85;;;17.20;99.10;;;;;;5012250;28;20049;-69
2022/10/02 12:33:58;;;;;;;8.13;4.22;;;17.30;99.00;;;;;;5005144;28;20026;-69
2022/10/02 12:37:08;;;;;;;6.00;3.63;;;17.40;98.70;;;;;;5012774;28;20034;-69
2022/10/02 12:39:48;;;;;;;7.40;3.33;;;17.50;98.70;;;;;;5004040;28;20041;-69
2022/10/02 12:42:26;;;;;;;6.63;3.45;;;17.60;98.50;;;;;;5008886;28;20076;-70
2022/10/02 12:45:07;;;;;;;6.85;2.88;;;17.70;98.40;;;;;;5011159;28;20037;-69
2022/10/02 12:47:56;;;;;;;5.22;2.47;;;17.70;97.80;;;;;;5008829;28;20034;-69
2022/10/02 12:50:43;;;;;;;7.07;3.22;;;17.60;97.60;;;;;;4985697;28;20038;-69
2022/10/02 12:54:06;;;;;;;5.85;2.75;;;17.60;97.40;;;;;;5011399;28;20034;-69
2022/10/02 12:56:59;;;;;;;5.68;2.55;;;17.50;97.10;;;;;;4927521;29;20036;-68
2022/10/02 12:59:40;;;;;;;5.93;2.40;;;17.40;96.90;;;;;;4931747;29;20027;-68
2022/10/02 13:02:28;;;;;;;4.47;2.40;;;17.40;97.00;;;;;;4992209;28;20026;-68
2022/10/02 13:05:24;;;;;;;5.88;2.40;;;17.40;97.10;;;;;;5005071;28;20041;-68
2022/10/02 13:08:14;;;;;;;6.47;3.67;;;17.40;97.10;;;;;;5003103;28;20030;-67
2022/10/02 13:10:56;;;;;;;6.00;3.00;;;17.40;97.00;;;;;;5001333;28;20037;-67
2022/10/02 13:13:41;;;;;;;5.03;2.40;;;17.40;96.80;;;;;;5010656;28;20065;-70
2022/10/02 13:16:42;;;;;;;5.07;2.42;;;17.50;96.90;;;;;;5009754;28;20034;-68
2022/10/02 13:19:34;;;;;;;5.25;2.60;;;17.50;96.90;;;;;;5008327;28;20376;-67
2022/10/02 13:22:22;;;;;;;5.60;2.33;;;17.60;96.80;;;;;;4996861;28;20018;-68
2022/10/02 13:25:20;;;;;;;6.88;2.83;;;17.60;96.60;;;;;;5010008;28;20054;-69
2022/10/02 13:28:12;;;;;;;4.38;2.75;;;17.70;96.30;;;;;;4993733;28;20057;-68
2022/10/02 13:31:10;;;;;;;5.95;2.10;;;17.70;96.30;;;;;;5012005;28;20029;-69
2022/10/02 13:34:04;;;;;;;4.30;2.00;;;17.70;96.10;;;;;;4990265;28;20048;-68
2022/10/02 13:37:03;;;;;;;3.67;2.30;;;17.70;95.80;;;;;;5012885;28;20390;-69
2022/10/02 13:39:50;;;;;;;5.43;2.28;;;17.70;96.00;;;;;;5011371;28;20046;-69
2022/10/02 13:42:47;;;;;;;7.18;2.53;;;17.70;95.60;;;;;;5014627;28;20026;-70
2022/10/02 13:46:02;;;;;;;5.40;2.05;;;17.60;95.30;;;;;;5005099;28;20034;-68
2022/10/02 13:48:46;;;;;;;7.18;2.15;;;17.60;95.00;;;;;;4925924;28;20431;-66
2022/10/02 13:51:39;;;;;;;4.65;2.08;;;17.50;95.20;;;;;;5001729;28;20068;-67
2022/10/02 13:54:18;;;;;;;5.05;2.60;;;17.40;95.20;;;;;;5005793;28;20037;-68
2022/10/02 13:56:50;;;;;;;4.88;1.98;;;17.40;95.20;;;;;;5011707;28;20038;-67
2022/10/02 13:59:24;;;;;;;4.55;2.00;;;17.40;95.30;;;;;;4996124;28;20030;-67
2022/10/02 14:01:55;;;;;;;;;;;17.40;95.30;;;;;;5015062;28;20079;-67
2022/10/02 14:04:28;;;;;;;7.22;2.05;;;17.40;95.40;;;;;;5000654;28;19918;-67
2022/10/02 14:06:58;;;;;;;7.75;2.50;;;17.50;95.50;;;;;;5013334;28;20105;-67
2022/10/02 14:09:29;;;;;;;4.88;2.08;;;17.60;95.50;;;;;;5012744;28;21720;-66
2022/10/02 14:11:55;;;;;;;4.60;2.10;;;17.60;95.50;;;;;;5006447;28;20026;-68
2022/10/02 14:14:42;;;;;;;5.97;2.25;;;17.80;95.60;;;;;;5011998;28;20033;-67
2022/10/02 14:17:50;;;;;;;4.35;2.08;;;17.90;95.60;;;;;;5006074;28;20026;-67
2022/10/02 14:20:21;;;;;;;6.97;2.63;;;18.10;95.50;;;;;;5013617;28;20034;-67
2022/10/02 14:23:19;;;;;;;5.93;2.15;;;18.20;95.00;;;;;;5012783;28;20062;-67
2022/10/02 14:26:08;;;;;;;5.20;2.05;;;18.30;94.90;;;;;;5015577;28;20072;-68